Delta State University, Mississippi
Current Conditions -  °F | °C
As of 8:35 AM on Thursday 23 Oct 2014 (Local Time) from KRNV Reporting Station
Clear Clear  
Wind Chill: 50°   Ceiling: Unl
Heat Index: 50°   Visibility: 10mi
Dew Point: 47°   Wind: 5mph
Humidity: 90%   Direction: 70°ENE
Pressure: 30.19"   Gusts: NA
Location:  33.7453°N, 90.733°W
Report Text: KRNV 231335Z AUTO 07004KT 10SM CLR 10/09 A3019 RMK AO2 T01010086
Loading
Personal Weather Stations






























Interactive Weather Map
Tropical Storm Tracking
New forecast layout! Learn more

10-Day Weather Forecast

Advertisements
Track Severe Weather on mobile